sensor_id;sensor_type;location;lat;lon;timestamp;P1;durP1;ratioP1;P2;durP2;ratioP2
50319;SDS011;36226;53.464;9.852;2023-03-13T00:00:49;22.92;;;4.97;;
50319;SDS011;36226;53.464;9.852;2023-03-13T00:03:14;27.40;;;4.85;;
50319;SDS011;36226;53.464;9.852;2023-03-13T00:05:40;30.02;;;5.25;;
50319;SDS011;36226;53.464;9.852;2023-03-13T00:08:05;24.80;;;5.68;;
50319;SDS011;36226;53.464;9.852;2023-03-13T00:10:30;36.53;;;7.10;;
50319;SDS011;36226;53.464;9.852;2023-03-13T00:12:56;29.23;;;6.00;;
50319;SDS011;36226;53.464;9.852;2023-03-13T00:15:21;41.40;;;6.25;;
50319;SDS011;36226;53.464;9.852;2023-03-13T00:17:46;32.47;;;6.03;;
50319;SDS011;36226;53.464;9.852;2023-03-13T00:20:12;33.17;;;5.80;;
50319;SDS011;36226;53.464;9.852;2023-03-13T00:22:37;23.70;;;5.47;;
50319;SDS011;36226;53.464;9.852;2023-03-13T00:25:03;30.27;;;5.60;;
50319;SDS011;36226;53.464;9.852;2023-03-13T00:27:31;33.15;;;5.97;;
50319;SDS011;36226;53.464;9.852;2023-03-13T00:29:57;27.58;;;5.97;;
50319;SDS011;36226;53.464;9.852;2023-03-13T00:32:22;32.60;;;6.45;;
50319;SDS011;36226;53.464;9.852;2023-03-13T00:34:48;24.38;;;5.13;;
50319;SDS011;36226;53.464;9.852;2023-03-13T00:37:13;26.40;;;5.72;;
50319;SDS011;36226;53.464;9.852;2023-03-13T00:39:38;27.92;;;5.13;;
50319;SDS011;36226;53.464;9.852;2023-03-13T00:42:04;23.90;;;5.53;;
50319;SDS011;36226;53.464;9.852;2023-03-13T00:44:29;29.30;;;5.55;;
50319;SDS011;36226;53.464;9.852;2023-03-13T00:46:55;20.40;;;4.97;;
50319;SDS011;36226;53.464;9.852;2023-03-13T00:49:20;39.47;;;5.78;;
50319;SDS011;36226;53.464;9.852;2023-03-13T00:51:45;29.02;;;5.82;;
50319;SDS011;36226;53.464;9.852;2023-03-13T00:54:11;30.42;;;6.05;;
50319;SDS011;36226;53.464;9.852;2023-03-13T00:56:37;34.92;;;5.97;;
50319;SDS011;36226;53.464;9.852;2023-03-13T00:59:02;28.98;;;5.40;;
50319;SDS011;36226;53.464;9.852;2023-03-13T01:01:28;29.30;;;5.75;;
50319;SDS011;36226;53.464;9.852;2023-03-13T01:03:57;33.05;;;6.07;;
50319;SDS011;36226;53.464;9.852;2023-03-13T01:06:25;25.83;;;5.75;;
50319;SDS011;36226;53.464;9.852;2023-03-13T01:08:52;35.38;;;6.07;;
50319;SDS011;36226;53.464;9.852;2023-03-13T01:11:22;26.52;;;5.50;;
50319;SDS011;36226;53.464;9.852;2023-03-13T01:13:49;33.33;;;8.23;;
50319;SDS011;36226;53.464;9.852;2023-03-13T01:16:19;30.08;;;6.43;;
50319;SDS011;36226;53.464;9.852;2023-03-13T01:18:46;30.52;;;5.63;;
50319;SDS011;36226;53.464;9.852;2023-03-13T01:21:13;29.83;;;6.20;;
50319;SDS011;36226;53.464;9.852;2023-03-13T01:23:39;32.28;;;7.18;;
50319;SDS011;36226;53.464;9.852;2023-03-13T01:26:07;32.47;;;6.25;;
50319;SDS011;36226;53.464;9.852;2023-03-13T01:28:33;34.03;;;7.45;;
50319;SDS011;36226;53.464;9.852;2023-03-13T01:30:59;30.50;;;5.63;;
50319;SDS011;36226;53.464;9.852;2023-03-13T01:33:25;32.45;;;5.88;;
50319;SDS011;36226;53.464;9.852;2023-03-13T01:35:51;28.95;;;6.03;;
50319;SDS011;36226;53.464;9.852;2023-03-13T01:38:16;34.17;;;7.25;;
50319;SDS011;36226;53.464;9.852;2023-03-13T01:40:43;36.75;;;6.45;;
50319;SDS011;36226;53.464;9.852;2023-03-13T01:43:20;24.83;;;5.65;;
50319;SDS011;36226;53.464;9.852;2023-03-13T01:50:56;31.58;;;6.50;;
50319;SDS011;36226;53.464;9.852;2023-03-13T01:53:23;29.23;;;5.03;;
50319;SDS011;36226;53.464;9.852;2023-03-13T01:55:49;29.15;;;5.53;;
50319;SDS011;36226;53.464;9.852;2023-03-13T01:58:14;27.08;;;6.13;;
50319;SDS011;36226;53.464;9.852;2023-03-13T02:00:40;26.83;;;6.20;;
50319;SDS011;36226;53.464;9.852;2023-03-13T02:03:11;27.60;;;5.43;;
50319;SDS011;36226;53.464;9.852;2023-03-13T02:05:39;27.35;;;5.60;;
50319;SDS011;36226;53.464;9.852;2023-03-13T02:08:06;26.55;;;5.00;;
50319;SDS011;36226;53.464;9.852;2023-03-13T02:10:34;26.45;;;5.45;;
50319;SDS011;36226;53.464;9.852;2023-03-13T02:13:03;27.33;;;5.35;;
50319;SDS011;36226;53.464;9.852;2023-03-13T02:15:28;35.58;;;5.50;;
50319;SDS011;36226;53.464;9.852;2023-03-13T02:17:54;22.27;;;5.18;;
50319;SDS011;36226;53.464;9.852;2023-03-13T02:20:20;28.60;;;7.25;;
50319;SDS011;36226;53.464;9.852;2023-03-13T02:25:45;26.35;;;5.10;;
50319;SDS011;36226;53.464;9.852;2023-03-13T02:28:18;28.13;;;5.63;;
50319;SDS011;36226;53.464;9.852;2023-03-13T02:30:46;32.55;;;5.78;;
50319;SDS011;36226;53.464;9.852;2023-03-13T02:33:12;28.98;;;5.00;;
50319;SDS011;36226;53.464;9.852;2023-03-13T02:35:38;27.15;;;4.72;;
50319;SDS011;36226;53.464;9.852;2023-03-13T02:38:05;29.42;;;5.53;;
50319;SDS011;36226;53.464;9.852;2023-03-13T02:40:37;29.90;;;5.20;;
50319;SDS011;36226;53.464;9.852;2023-03-13T02:43:08;33.83;;;5.15;;
50319;SDS011;36226;53.464;9.852;2023-03-13T02:45:36;31.30;;;5.30;;
50319;SDS011;36226;53.464;9.852;2023-03-13T02:48:01;25.30;;;4.60;;
50319;SDS011;36226;53.464;9.852;2023-03-13T02:50:27;22.88;;;4.75;;
50319;SDS011;36226;53.464;9.852;2023-03-13T02:52:57;18.17;;;4.45;;
50319;SDS011;36226;53.464;9.852;2023-03-13T02:55:29;24.25;;;4.85;;
50319;SDS011;36226;53.464;9.852;2023-03-13T02:57:58;32.42;;;5.53;;
50319;SDS011;36226;53.464;9.852;2023-03-13T03:00:23;34.00;;;5.85;;
50319;SDS011;36226;53.464;9.852;2023-03-13T03:02:51;23.92;;;4.13;;
50319;SDS011;36226;53.464;9.852;2023-03-13T03:05:18;28.33;;;4.47;;
50319;SDS011;36226;53.464;9.852;2023-03-13T03:07:43;37.80;;;4.90;;
50319;SDS011;36226;53.464;9.852;2023-03-13T03:10:09;24.65;;;5.35;;
50319;SDS011;36226;53.464;9.852;2023-03-13T03:12:35;27.90;;;4.85;;
50319;SDS011;36226;53.464;9.852;2023-03-13T03:15:00;27.33;;;4.90;;
50319;SDS011;36226;53.464;9.852;2023-03-13T03:17:25;22.63;;;4.55;;
50319;SDS011;36226;53.464;9.852;2023-03-13T03:19:51;22.75;;;4.22;;
50319;SDS011;36226;53.464;9.852;2023-03-13T03:22:16;29.55;;;5.10;;
50319;SDS011;36226;53.464;9.852;2023-03-13T03:24:41;25.33;;;4.57;;
50319;SDS011;36226;53.464;9.852;2023-03-13T03:27:07;22.25;;;3.90;;
50319;SDS011;36226;53.464;9.852;2023-03-13T03:29:32;24.95;;;4.40;;
50319;SDS011;36226;53.464;9.852;2023-03-13T03:31:57;22.25;;;3.97;;
50319;SDS011;36226;53.464;9.852;2023-03-13T03:34:23;20.30;;;3.88;;
50319;SDS011;36226;53.464;9.852;2023-03-13T03:36:48;18.63;;;3.63;;
50319;SDS011;36226;53.464;9.852;2023-03-13T03:39:13;19.05;;;3.92;;
50319;SDS011;36226;53.464;9.852;2023-03-13T03:41:38;28.33;;;5.07;;
50319;SDS011;36226;53.464;9.852;2023-03-13T03:44:04;28.08;;;3.78;;
50319;SDS011;36226;53.464;9.852;2023-03-13T03:46:30;24.25;;;4.43;;
50319;SDS011;36226;53.464;9.852;2023-03-13T03:48:55;23.63;;;4.32;;
50319;SDS011;36226;53.464;9.852;2023-03-13T03:51:20;24.30;;;4.80;;
50319;SDS011;36226;53.464;9.852;2023-03-13T03:53:46;24.08;;;3.88;;
50319;SDS011;36226;53.464;9.852;2023-03-13T03:56:12;22.13;;;4.03;;
50319;SDS011;36226;53.464;9.852;2023-03-13T03:58:37;25.67;;;4.13;;
50319;SDS011;36226;53.464;9.852;2023-03-13T04:01:02;25.20;;;4.68;;
50319;SDS011;36226;53.464;9.852;2023-03-13T04:03:28;25.10;;;4.50;;
50319;SDS011;36226;53.464;9.852;2023-03-13T04:05:53;26.88;;;4.80;;
50319;SDS011;36226;53.464;9.852;2023-03-13T04:08:19;26.65;;;3.97;;
50319;SDS011;36226;53.464;9.852;2023-03-13T04:10:44;28.33;;;5.32;;
50319;SDS011;36226;53.464;9.852;2023-03-13T04:13:09;27.73;;;4.50;;
50319;SDS011;36226;53.464;9.852;2023-03-13T04:15:36;21.60;;;3.92;;
50319;SDS011;36226;53.464;9.852;2023-03-13T04:18:02;19.70;;;3.72;;
50319;SDS011;36226;53.464;9.852;2023-03-13T04:20:28;19.23;;;3.30;;
50319;SDS011;36226;53.464;9.852;2023-03-13T04:22:53;21.80;;;4.13;;
50319;SDS011;36226;53.464;9.852;2023-03-13T04:25:18;20.30;;;3.60;;
50319;SDS011;36226;53.464;9.852;2023-03-13T04:27:44;28.35;;;4.22;;
50319;SDS011;36226;53.464;9.852;2023-03-13T04:30:09;16.27;;;3.42;;
50319;SDS011;36226;53.464;9.852;2023-03-13T04:32:35;21.20;;;4.55;;
50319;SDS011;36226;53.464;9.852;2023-03-13T04:35:00;20.60;;;4.10;;
50319;SDS011;36226;53.464;9.852;2023-03-13T04:37:26;22.35;;;3.60;;
50319;SDS011;36226;53.464;9.852;2023-03-13T04:39:51;22.52;;;3.88;;
50319;SDS011;36226;53.464;9.852;2023-03-13T04:42:16;21.65;;;3.78;;
50319;SDS011;36226;53.464;9.852;2023-03-13T04:44:42;23.35;;;3.85;;
50319;SDS011;36226;53.464;9.852;2023-03-13T04:47:07;17.58;;;3.72;;
50319;SDS011;36226;53.464;9.852;2023-03-13T04:49:32;20.88;;;4.35;;
50319;SDS011;36226;53.464;9.852;2023-03-13T04:51:59;24.58;;;3.90;;
50319;SDS011;36226;53.464;9.852;2023-03-13T04:54:24;21.70;;;3.53;;
50319;SDS011;36226;53.464;9.852;2023-03-13T04:56:49;21.38;;;3.60;;
50319;SDS011;36226;53.464;9.852;2023-03-13T04:59:15;19.67;;;3.65;;
50319;SDS011;36226;53.464;9.852;2023-03-13T05:01:40;20.08;;;3.85;;
50319;SDS011;36226;53.464;9.852;2023-03-13T05:04:06;17.15;;;4.10;;
50319;SDS011;36226;53.464;9.852;2023-03-13T05:06:32;16.73;;;3.85;;
50319;SDS011;36226;53.464;9.852;2023-03-13T05:08:57;17.95;;;3.75;;
50319;SDS011;36226;53.464;9.852;2023-03-13T05:11:26;18.50;;;4.32;;
50319;SDS011;36226;53.464;9.852;2023-03-13T05:13:51;20.55;;;3.67;;
50319;SDS011;36226;53.464;9.852;2023-03-13T05:16:17;19.50;;;3.30;;
50319;SDS011;36226;53.464;9.852;2023-03-13T05:18:42;20.75;;;3.35;;
50319;SDS011;36226;53.464;9.852;2023-03-13T05:21:07;16.27;;;3.08;;
50319;SDS011;36226;53.464;9.852;2023-03-13T05:23:33;13.30;;;3.00;;
50319;SDS011;36226;53.464;9.852;2023-03-13T05:25:59;10.60;;;2.92;;
50319;SDS011;36226;53.464;9.852;2023-03-13T05:28:24;14.23;;;2.97;;
50319;SDS011;36226;53.464;9.852;2023-03-13T05:30:54;11.13;;;2.67;;
50319;SDS011;36226;53.464;9.852;2023-03-13T05:33:20;11.75;;;2.30;;
50319;SDS011;36226;53.464;9.852;2023-03-13T05:35:45;12.15;;;2.50;;
50319;SDS011;36226;53.464;9.852;2023-03-13T05:38:14;10.55;;;3.13;;
50319;SDS011;36226;53.464;9.852;2023-03-13T05:40:39;13.18;;;3.15;;
50319;SDS011;36226;53.464;9.852;2023-03-13T05:43:05;6.15;;;1.95;;
50319;SDS011;36226;53.464;9.852;2023-03-13T05:45:30;9.48;;;2.10;;
50319;SDS011;36226;53.464;9.852;2023-03-13T05:47:56;7.45;;;1.80;;
50319;SDS011;36226;53.464;9.852;2023-03-13T05:50:23;6.35;;;1.80;;
50319;SDS011;36226;53.464;9.852;2023-03-13T05:52:49;9.10;;;1.55;;
50319;SDS011;36226;53.464;9.852;2023-03-13T05:55:14;7.60;;;1.70;;
50319;SDS011;36226;53.464;9.852;2023-03-13T05:57:46;4.55;;;1.50;;
50319;SDS011;36226;53.464;9.852;2023-03-13T06:00:13;4.72;;;1.45;;
50319;SDS011;36226;53.464;9.852;2023-03-13T06:02:39;6.90;;;1.77;;
50319;SDS011;36226;53.464;9.852;2023-03-13T06:05:05;4.45;;;1.55;;
50319;SDS011;36226;53.464;9.852;2023-03-13T06:07:30;5.03;;;1.40;;
50319;SDS011;36226;53.464;9.852;2023-03-13T06:09:56;6.75;;;1.65;;
50319;SDS011;36226;53.464;9.852;2023-03-13T06:12:21;5.40;;;1.83;;
50319;SDS011;36226;53.464;9.852;2023-03-13T06:14:47;10.25;;;2.22;;
50319;SDS011;36226;53.464;9.852;2023-03-13T06:17:12;4.63;;;1.73;;
50319;SDS011;36226;53.464;9.852;2023-03-13T06:19:37;6.88;;;1.80;;
50319;SDS011;36226;53.464;9.852;2023-03-13T06:22:03;5.20;;;1.33;;
50319;SDS011;36226;53.464;9.852;2023-03-13T06:24:28;4.18;;;1.35;;
50319;SDS011;36226;53.464;9.852;2023-03-13T06:26:53;3.95;;;1.30;;
50319;SDS011;36226;53.464;9.852;2023-03-13T06:29:19;3.85;;;1.13;;
50319;SDS011;36226;53.464;9.852;2023-03-13T06:31:44;6.97;;;1.55;;
50319;SDS011;36226;53.464;9.852;2023-03-13T06:34:10;5.07;;;1.63;;
50319;SDS011;36226;53.464;9.852;2023-03-13T06:36:36;5.88;;;1.60;;
50319;SDS011;36226;53.464;9.852;2023-03-13T06:39:04;4.97;;;1.40;;
50319;SDS011;36226;53.464;9.852;2023-03-13T06:41:29;4.63;;;2.20;;
50319;SDS011;36226;53.464;9.852;2023-03-13T06:43:55;6.32;;;1.60;;
50319;SDS011;36226;53.464;9.852;2023-03-13T06:46:21;5.13;;;1.73;;
50319;SDS011;36226;53.464;9.852;2023-03-13T06:48:48;6.53;;;1.85;;
50319;SDS011;36226;53.464;9.852;2023-03-13T06:51:14;4.35;;;1.65;;
50319;SDS011;36226;53.464;9.852;2023-03-13T06:53:41;6.22;;;1.80;;
50319;SDS011;36226;53.464;9.852;2023-03-13T06:56:07;5.75;;;2.13;;
50319;SDS011;36226;53.464;9.852;2023-03-13T06:58:32;5.68;;;2.00;;
50319;SDS011;36226;53.464;9.852;2023-03-13T07:00:58;3.97;;;2.05;;
50319;SDS011;36226;53.464;9.852;2023-03-13T07:03:24;8.00;;;2.40;;
50319;SDS011;36226;53.464;9.852;2023-03-13T07:05:56;5.15;;;1.88;;
50319;SDS011;36226;53.464;9.852;2023-03-13T07:08:22;5.03;;;2.10;;
50319;SDS011;36226;53.464;9.852;2023-03-13T07:10:49;4.18;;;2.03;;
50319;SDS011;36226;53.464;9.852;2023-03-13T07:13:16;7.20;;;2.35;;
50319;SDS011;36226;53.464;9.852;2023-03-13T07:15:43;5.72;;;2.08;;
50319;SDS011;36226;53.464;9.852;2023-03-13T07:18:09;6.93;;;2.50;;
50319;SDS011;36226;53.464;9.852;2023-03-13T07:20:34;6.57;;;2.40;;
50319;SDS011;36226;53.464;9.852;2023-03-13T07:23:00;4.70;;;2.22;;
50319;SDS011;36226;53.464;9.852;2023-03-13T07:25:25;6.30;;;2.20;;
50319;SDS011;36226;53.464;9.852;2023-03-13T07:27:50;4.85;;;2.08;;
50319;SDS011;36226;53.464;9.852;2023-03-13T07:30:17;6.65;;;3.10;;
50319;SDS011;36226;53.464;9.852;2023-03-13T07:32:43;5.97;;;2.80;;
50319;SDS011;36226;53.464;9.852;2023-03-13T07:35:08;4.95;;;2.80;;
50319;SDS011;36226;53.464;9.852;2023-03-13T07:37:33;5.85;;;2.45;;
50319;SDS011;36226;53.464;9.852;2023-03-13T07:39:59;7.93;;;2.58;;
50319;SDS011;36226;53.464;9.852;2023-03-13T07:42:24;6.65;;;2.72;;
50319;SDS011;36226;53.464;9.852;2023-03-13T07:44:49;6.53;;;2.78;;
50319;SDS011;36226;53.464;9.852;2023-03-13T07:47:15;5.55;;;3.03;;
50319;SDS011;36226;53.464;9.852;2023-03-13T07:49:40;5.10;;;3.33;;
50319;SDS011;36226;53.464;9.852;2023-03-13T07:52:08;6.15;;;3.17;;
50319;SDS011;36226;53.464;9.852;2023-03-13T07:54:33;4.68;;;2.83;;
50319;SDS011;36226;53.464;9.852;2023-03-13T07:56:59;7.32;;;3.40;;
50319;SDS011;36226;53.464;9.852;2023-03-13T07:59:25;6.72;;;3.13;;
50319;SDS011;36226;53.464;9.852;2023-03-13T08:01:51;8.13;;;3.95;;
50319;SDS011;36226;53.464;9.852;2023-03-13T08:04:16;5.93;;;2.72;;
50319;SDS011;36226;53.464;9.852;2023-03-13T08:06:41;8.82;;;4.30;;
50319;SDS011;36226;53.464;9.852;2023-03-13T08:09:07;8.40;;;4.28;;
50319;SDS011;36226;53.464;9.852;2023-03-13T08:11:33;6.85;;;3.47;;
50319;SDS011;36226;53.464;9.852;2023-03-13T08:13:58;7.45;;;4.15;;
50319;SDS011;36226;53.464;9.852;2023-03-13T08:16:24;5.07;;;3.22;;
50319;SDS011;36226;53.464;9.852;2023-03-13T08:18:52;7.90;;;4.57;;
50319;SDS011;36226;53.464;9.852;2023-03-13T08:21:21;8.40;;;3.97;;
50319;SDS011;36226;53.464;9.852;2023-03-13T08:23:48;7.07;;;4.20;;
50319;SDS011;36226;53.464;9.852;2023-03-13T08:26:16;7.28;;;4.10;;
50319;SDS011;36226;53.464;9.852;2023-03-13T08:28:44;9.27;;;4.43;;
50319;SDS011;36226;53.464;9.852;2023-03-13T08:31:12;6.80;;;3.90;;
50319;SDS011;36226;53.464;9.852;2023-03-13T08:33:46;9.65;;;4.78;;
50319;SDS011;36226;53.464;9.852;2023-03-13T08:36:13;7.88;;;4.68;;
50319;SDS011;36226;53.464;9.852;2023-03-13T08:38:38;7.70;;;4.70;;
50319;SDS011;36226;53.464;9.852;2023-03-13T08:41:06;12.77;;;5.72;;
50319;SDS011;36226;53.464;9.852;2023-03-13T08:43:32;9.02;;;5.10;;
50319;SDS011;36226;53.464;9.852;2023-03-13T08:45:57;10.25;;;5.18;;
50319;SDS011;36226;53.464;9.852;2023-03-13T08:48:23;9.15;;;5.22;;
50319;SDS011;36226;53.464;9.852;2023-03-13T08:50:58;9.02;;;4.72;;
50319;SDS011;36226;53.464;9.852;2023-03-13T08:53:33;7.35;;;4.53;;
50319;SDS011;36226;53.464;9.852;2023-03-13T08:56:00;11.93;;;5.07;;
50319;SDS011;36226;53.464;9.852;2023-03-13T08:58:26;9.90;;;5.45;;
50319;SDS011;36226;53.464;9.852;2023-03-13T09:00:51;10.85;;;6.13;;
50319;SDS011;36226;53.464;9.852;2023-03-13T09:03:17;10.20;;;5.10;;
50319;SDS011;36226;53.464;9.852;2023-03-13T09:05:43;10.05;;;5.55;;
50319;SDS011;36226;53.464;9.852;2023-03-13T09:08:10;10.63;;;4.60;;
50319;SDS011;36226;53.464;9.852;2023-03-13T09:10:35;10.48;;;5.30;;
50319;SDS011;36226;53.464;9.852;2023-03-13T09:13:01;8.85;;;5.32;;
50319;SDS011;36226;53.464;9.852;2023-03-13T09:15:26;11.15;;;5.13;;
50319;SDS011;36226;53.464;9.852;2023-03-13T09:17:53;12.05;;;5.95;;
50319;SDS011;36226;53.464;9.852;2023-03-13T09:20:19;13.95;;;6.35;;
50319;SDS011;36226;53.464;9.852;2023-03-13T09:22:45;11.90;;;5.53;;
50319;SDS011;36226;53.464;9.852;2023-03-13T09:25:11;9.20;;;5.00;;
50319;SDS011;36226;53.464;9.852;2023-03-13T09:27:37;12.70;;;5.72;;
50319;SDS011;36226;53.464;9.852;2023-03-13T09:30:02;8.98;;;6.32;;
50319;SDS011;36226;53.464;9.852;2023-03-13T09:32:28;10.10;;;5.93;;
50319;SDS011;36226;53.464;9.852;2023-03-13T09:34:53;10.93;;;5.90;;
50319;SDS011;36226;53.464;9.852;2023-03-13T09:37:19;11.45;;;5.82;;
50319;SDS011;36226;53.464;9.852;2023-03-13T09:39:45;10.68;;;5.57;;
50319;SDS011;36226;53.464;9.852;2023-03-13T09:42:14;12.38;;;5.85;;
50319;SDS011;36226;53.464;9.852;2023-03-13T09:47:39;13.75;;;6.43;;
50319;SDS011;36226;53.464;9.852;2023-03-13T09:52:40;12.32;;;6.45;;
50319;SDS011;36226;53.464;9.852;2023-03-13T09:55:25;12.45;;;6.53;;
50319;SDS011;36226;53.464;9.852;2023-03-13T09:57:55;13.75;;;6.82;;
50319;SDS011;36226;53.464;9.852;2023-03-13T10:00:27;13.43;;;6.05;;
50319;SDS011;36226;53.464;9.852;2023-03-13T10:06:13;16.40;;;6.72;;
50319;SDS011;36226;53.464;9.852;2023-03-13T10:08:41;11.23;;;6.00;;
50319;SDS011;36226;53.464;9.852;2023-03-13T10:16:55;8.82;;;5.60;;
50319;SDS011;36226;53.464;9.852;2023-03-13T10:19:31;11.75;;;5.40;;
50319;SDS011;36226;53.464;9.852;2023-03-13T10:22:02;11.32;;;5.20;;
50319;SDS011;36226;53.464;9.852;2023-03-13T10:24:33;11.82;;;5.57;;
50319;SDS011;36226;53.464;9.852;2023-03-13T10:27:03;10.32;;;5.90;;
50319;SDS011;36226;53.464;9.852;2023-03-13T10:29:29;9.10;;;5.28;;
50319;SDS011;36226;53.464;9.852;2023-03-13T10:31:59;8.35;;;4.95;;
50319;SDS011;36226;53.464;9.852;2023-03-13T10:34:27;9.88;;;5.38;;
50319;SDS011;36226;53.464;9.852;2023-03-13T10:36:56;9.07;;;5.10;;
50319;SDS011;36226;53.464;9.852;2023-03-13T10:39:23;8.63;;;5.10;;
50319;SDS011;36226;53.464;9.852;2023-03-13T10:41:52;10.07;;;5.10;;
50319;SDS011;36226;53.464;9.852;2023-03-13T10:44:22;10.38;;;4.78;;
50319;SDS011;36226;53.464;9.852;2023-03-13T10:46:49;14.05;;;5.22;;
50319;SDS011;36226;53.464;9.852;2023-03-13T10:51:48;10.27;;;4.40;;
50319;SDS011;36226;53.464;9.852;2023-03-13T10:54:34;9.15;;;4.60;;
50319;SDS011;36226;53.464;9.852;2023-03-13T10:59:50;9.05;;;4.65;;
50319;SDS011;36226;53.464;9.852;2023-03-13T11:02:21;8.15;;;5.30;;
50319;SDS011;36226;53.464;9.852;2023-03-13T11:04:48;7.43;;;4.07;;
50319;SDS011;36226;53.464;9.852;2023-03-13T11:10:39;7.50;;;4.13;;
50319;SDS011;36226;53.464;9.852;2023-03-13T11:12:52;6.65;;;4.05;;
50319;SDS011;36226;53.464;9.852;2023-03-13T11:17:46;7.38;;;3.55;;
50319;SDS011;36226;53.464;9.852;2023-03-13T11:20:29;7.57;;;3.38;;
50319;SDS011;36226;53.464;9.852;2023-03-13T11:28:14;6.17;;;2.90;;
50319;SDS011;36226;53.464;9.852;2023-03-13T11:30:44;8.00;;;2.50;;
50319;SDS011;36226;53.464;9.852;2023-03-13T11:33:22;5.75;;;2.67;;
50319;SDS011;36226;53.464;9.852;2023-03-13T11:36:01;4.15;;;2.15;;
50319;SDS011;36226;53.464;9.852;2023-03-13T11:41:40;5.30;;;2.50;;
50319;SDS011;36226;53.464;9.852;2023-03-13T11:50:07;5.25;;;2.40;;
50319;SDS011;36226;53.464;9.852;2023-03-13T12:00:58;4.20;;;1.95;;
50319;SDS011;36226;53.464;9.852;2023-03-13T12:03:42;5.20;;;1.98;;
50319;SDS011;36226;53.464;9.852;2023-03-13T12:06:18;4.30;;;2.00;;
50319;SDS011;36226;53.464;9.852;2023-03-13T12:08:50;5.88;;;2.00;;
50319;SDS011;36226;53.464;9.852;2023-03-13T12:11:27;3.65;;;1.50;;
50319;SDS011;36226;53.464;9.852;2023-03-13T12:14:00;4.65;;;1.80;;
50319;SDS011;36226;53.464;9.852;2023-03-13T12:17:10;4.85;;;1.90;;
50319;SDS011;36226;53.464;9.852;2023-03-13T12:19:20;4.20;;;1.65;;
50319;SDS011;36226;53.464;9.852;2023-03-13T12:21:51;4.47;;;1.80;;
50319;SDS011;36226;53.464;9.852;2023-03-13T12:26:58;5.10;;;1.80;;
50319;SDS011;36226;53.464;9.852;2023-03-13T12:29:29;3.30;;;1.52;;
50319;SDS011;36226;53.464;9.852;2023-03-13T12:32:03;3.88;;;1.92;;
50319;SDS011;36226;53.464;9.852;2023-03-13T12:37:25;4.38;;;1.60;;
50319;SDS011;36226;53.464;9.852;2023-03-13T12:40:05;3.42;;;1.50;;
50319;SDS011;36226;53.464;9.852;2023-03-13T12:42:44;4.32;;;1.55;;
50319;SDS011;36226;53.464;9.852;2023-03-13T12:45:15;3.40;;;1.10;;
50319;SDS011;36226;53.464;9.852;2023-03-13T12:58:37;1.92;;;1.30;;
50319;SDS011;36226;53.464;9.852;2023-03-13T13:01:05;5.20;;;1.10;;
50319;SDS011;36226;53.464;9.852;2023-03-13T13:03:32;3.38;;;1.30;;
50319;SDS011;36226;53.464;9.852;2023-03-13T13:06:02;5.03;;;1.10;;
50319;SDS011;36226;53.464;9.852;2023-03-13T13:08:32;3.55;;;1.02;;
50319;SDS011;36226;53.464;9.852;2023-03-13T13:16:45;4.10;;;1.10;;
50319;SDS011;36226;53.464;9.852;2023-03-13T13:24:50;2.45;;;1.00;;
50319;SDS011;36226;53.464;9.852;2023-03-13T13:30:02;5.00;;;0.90;;
50319;SDS011;36226;53.464;9.852;2023-03-13T13:32:54;5.38;;;0.93;;
50319;SDS011;36226;53.464;9.852;2023-03-13T13:35:29;5.10;;;1.60;;
50319;SDS011;36226;53.464;9.852;2023-03-13T13:43:30;2.78;;;0.75;;
50319;SDS011;36226;53.464;9.852;2023-03-13T13:48:44;3.30;;;1.10;;
50319;SDS011;36226;53.464;9.852;2023-03-13T13:53:57;3.10;;;1.05;;
50319;SDS011;36226;53.464;9.852;2023-03-13T13:58:53;2.10;;;1.05;;
50319;SDS011;36226;53.464;9.852;2023-03-13T14:01:21;2.30;;;0.70;;
50319;SDS011;36226;53.464;9.852;2023-03-13T14:03:46;5.05;;;0.90;;
50319;SDS011;36226;53.464;9.852;2023-03-13T14:06:21;2.50;;;0.90;;
50319;SDS011;36226;53.464;9.852;2023-03-13T14:08:50;3.30;;;0.90;;
50319;SDS011;36226;53.464;9.852;2023-03-13T14:11:37;4.60;;;1.10;;
50319;SDS011;36226;53.464;9.852;2023-03-13T14:16:44;6.15;;;1.10;;
50319;SDS011;36226;53.464;9.852;2023-03-13T14:19:34;4.00;;;1.00;;
50319;SDS011;36226;53.464;9.852;2023-03-13T14:22:03;3.42;;;1.00;;
50319;SDS011;36226;53.464;9.852;2023-03-13T14:24:30;4.07;;;0.80;;
50319;SDS011;36226;53.464;9.852;2023-03-13T14:26:55;7.72;;;1.02;;
50319;SDS011;36226;53.464;9.852;2023-03-13T14:29:21;2.13;;;1.00;;
50319;SDS011;36226;53.464;9.852;2023-03-13T14:31:51;6.65;;;1.38;;
50319;SDS011;36226;53.464;9.852;2023-03-13T14:34:18;3.85;;;0.82;;
50319;SDS011;36226;53.464;9.852;2023-03-13T14:36:53;2.75;;;0.95;;
50319;SDS011;36226;53.464;9.852;2023-03-13T14:44:34;4.80;;;1.02;;
50319;SDS011;36226;53.464;9.852;2023-03-13T14:47:03;3.30;;;0.90;;
50319;SDS011;36226;53.464;9.852;2023-03-13T14:49:32;4.35;;;1.10;;
50319;SDS011;36226;53.464;9.852;2023-03-13T14:54:29;2.95;;;1.00;;
50319;SDS011;36226;53.464;9.852;2023-03-13T14:57:11;2.78;;;1.10;;
50319;SDS011;36226;53.464;9.852;2023-03-13T14:59:46;4.28;;;1.15;;
50319;SDS011;36226;53.464;9.852;2023-03-13T15:04:54;2.28;;;1.13;;
50319;SDS011;36226;53.464;9.852;2023-03-13T15:07:28;4.72;;;1.10;;
50319;SDS011;36226;53.464;9.852;2023-03-13T15:09:59;2.78;;;1.00;;
50319;SDS011;36226;53.464;9.852;2023-03-13T15:12:24;2.33;;;0.90;;
50319;SDS011;36226;53.464;9.852;2023-03-13T15:14:50;1.90;;;0.95;;
50319;SDS011;36226;53.464;9.852;2023-03-13T15:17:26;2.25;;;0.93;;
50319;SDS011;36226;53.464;9.852;2023-03-13T15:19:55;2.60;;;1.20;;
50319;SDS011;36226;53.464;9.852;2023-03-13T15:22:28;1.52;;;0.90;;
50319;SDS011;36226;53.464;9.852;2023-03-13T15:24:55;2.65;;;1.15;;
50319;SDS011;36226;53.464;9.852;2023-03-13T15:27:22;2.17;;;1.10;;
50319;SDS011;36226;53.464;9.852;2023-03-13T15:29:48;1.65;;;0.88;;
50319;SDS011;36226;53.464;9.852;2023-03-13T15:32:24;2.03;;;0.80;;
50319;SDS011;36226;53.464;9.852;2023-03-13T15:34:51;4.40;;;0.93;;
50319;SDS011;36226;53.464;9.852;2023-03-13T15:37:16;1.60;;;0.80;;
50319;SDS011;36226;53.464;9.852;2023-03-13T15:39:42;3.45;;;0.98;;
50319;SDS011;36226;53.464;9.852;2023-03-13T15:42:07;1.38;;;0.73;;
50319;SDS011;36226;53.464;9.852;2023-03-13T15:44:33;4.43;;;0.90;;
50319;SDS011;36226;53.464;9.852;2023-03-13T15:46:58;2.10;;;1.08;;
50319;SDS011;36226;53.464;9.852;2023-03-13T15:49:23;1.75;;;1.00;;
50319;SDS011;36226;53.464;9.852;2023-03-13T15:51:49;1.67;;;0.75;;
50319;SDS011;36226;53.464;9.852;2023-03-13T15:54:14;2.08;;;0.90;;
50319;SDS011;36226;53.464;9.852;2023-03-13T15:56:40;2.83;;;0.90;;
50319;SDS011;36226;53.464;9.852;2023-03-13T15:59:09;2.55;;;0.70;;
50319;SDS011;36226;53.464;9.852;2023-03-13T16:01:35;1.23;;;0.80;;
50319;SDS011;36226;53.464;9.852;2023-03-13T16:04:01;1.98;;;0.70;;
50319;SDS011;36226;53.464;9.852;2023-03-13T16:06:27;4.18;;;0.70;;
50319;SDS011;36226;53.464;9.852;2023-03-13T16:08:58;1.63;;;0.73;;
50319;SDS011;36226;53.464;9.852;2023-03-13T16:11:25;1.88;;;0.85;;
50319;SDS011;36226;53.464;9.852;2023-03-13T16:13:51;2.90;;;0.80;;
50319;SDS011;36226;53.464;9.852;2023-03-13T16:16:19;1.55;;;0.75;;
50319;SDS011;36226;53.464;9.852;2023-03-13T16:18:49;2.55;;;0.68;;
50319;SDS011;36226;53.464;9.852;2023-03-13T16:21:20;3.35;;;0.90;;
50319;SDS011;36226;53.464;9.852;2023-03-13T16:23:47;1.83;;;0.70;;
50319;SDS011;36226;53.464;9.852;2023-03-13T16:26:22;2.63;;;0.70;;
50319;SDS011;36226;53.464;9.852;2023-03-13T16:28:48;2.58;;;0.90;;
50319;SDS011;36226;53.464;9.852;2023-03-13T16:33:44;2.42;;;1.00;;
50319;SDS011;36226;53.464;9.852;2023-03-13T16:36:12;3.35;;;0.82;;
50319;SDS011;36226;53.464;9.852;2023-03-13T16:38:39;2.85;;;0.80;;